Time;durP1;ratioP1;P1;durP2;ratioP2;P2;SDS_P1;SDS_P2;PMS_P1;PMS_P2;Temp;Humidity;BMP_temperature;BMP_pressure;BME280_temperature;BME280_humidity;BME280_pressure;Samples;Min_cycle;Max_cycle;Signal;HPM_P1;HPM_P2
2021/07/27 00:01:49;;;;;;;4.80;4.30;;;18.10;99.90;;;;;;5071622;28;20446;-76
2021/07/27 00:04:16;;;;;;;5.47;4.60;;;18.10;99.90;;;;;;5065070;28;20542;-76
2021/07/27 00:06:43;;;;;;;5.40;4.87;;;18.10;99.90;;;;;;5058366;28;20454;-76
2021/07/27 00:09:10;;;;;;;8.53;4.50;;;18.10;99.90;;;;;;5066203;28;20460;-76
2021/07/27 00:11:37;;;;;;;5.90;5.30;;;18.10;99.90;;;;;;5068348;28;20452;-76
2021/07/27 00:14:05;;;;;;;5.00;4.50;;;18.00;99.90;;;;;;5070279;28;20442;-76
2021/07/27 00:16:33;;;;;;;5.37;4.87;;;18.00;99.90;;;;;;5065706;28;20825;-76
2021/07/27 00:19:00;;;;;;;5.73;4.80;;;18.00;99.90;;;;;;5063033;28;20556;-76
2021/07/27 00:21:27;;;;;;;5.80;5.20;;;17.90;99.90;;;;;;5069430;28;20435;-76
2021/07/27 00:23:54;;;;;;;6.27;5.37;;;17.90;99.90;;;;;;5066000;28;20428;-77
2021/07/27 00:26:24;;;;;;;8.00;5.33;;;17.90;99.90;;;;;;5068063;28;20450;-78
2021/07/27 00:28:51;;;;;;;7.13;5.63;;;17.90;99.90;;;;;;5069891;28;20432;-76
2021/07/27 00:31:19;;;;;;;5.17;4.50;;;17.90;99.90;;;;;;5068818;28;20422;-75
2021/07/27 00:33:48;;;;;;;7.00;5.60;;;17.90;99.90;;;;;;5053990;28;20452;-77
2021/07/27 00:36:15;;;;;;;4.87;4.40;;;17.80;99.90;;;;;;5081488;28;20518;-77
2021/07/27 00:38:42;;;;;;;5.03;4.53;;;17.80;99.90;;;;;;5069536;28;20516;-76
2021/07/27 00:41:09;;;;;;;5.60;5.10;;;17.80;99.90;;;;;;5066266;28;20454;-76
2021/07/27 00:43:36;;;;;;;4.70;3.97;;;17.80;99.90;;;;;;5066421;28;20461;-76
2021/07/27 00:46:03;;;;;;;5.80;5.10;;;17.80;99.90;;;;;;5070329;28;20433;-76
2021/07/27 00:48:29;;;;;;;6.60;5.40;;;17.70;99.90;;;;;;5062477;28;20461;-78
2021/07/27 00:50:58;;;;;;;5.27;4.53;;;17.80;99.90;;;;;;5068417;28;20436;-76
2021/07/27 00:53:25;;;;;;;6.13;5.53;;;17.70;99.90;;;;;;5064738;28;21269;-77
2021/07/27 00:55:52;;;;;;;6.73;5.80;;;17.70;99.90;;;;;;5069999;28;20415;-76
2021/07/27 00:58:19;;;;;;;6.80;6.10;;;17.70;99.90;;;;;;5064841;28;20473;-75
2021/07/27 01:00:46;;;;;;;7.63;6.27;;;17.60;99.90;;;;;;5065862;28;20456;-78
2021/07/27 01:03:15;;;;;;;6.67;6.03;;;17.60;99.90;;;;;;5068418;28;20787;-77
2021/07/27 01:05:42;;;;;;;6.97;6.23;;;17.60;99.90;;;;;;5066066;28;20428;-77
2021/07/27 01:08:10;;;;;;;6.70;5.83;;;17.70;99.90;;;;;;5070045;28;20427;-78
2021/07/27 01:10:37;;;;;;;6.23;5.37;;;17.60;99.90;;;;;;5065099;28;20753;-77
2021/07/27 01:13:05;;;;;;;6.03;5.43;;;17.60;99.90;;;;;;5068194;28;20510;-76
2021/07/27 01:15:32;;;;;;;6.43;5.30;;;17.60;99.90;;;;;;5068037;28;20473;-76
2021/07/27 01:18:04;;;;;;;6.40;5.30;;;17.60;99.90;;;;;;5069522;28;20557;-77
2021/07/27 01:20:45;;;;;;;6.57;5.73;;;17.60;99.90;;;;;;5069599;28;20410;-77
2021/07/27 01:39:25;;;;;;;6.77;5.60;;;17.50;99.90;;;;;;5066062;28;20888;-76
2021/07/27 01:44:34;;;;;;;8.80;6.30;;;17.40;99.90;;;;;;5070048;28;20941;-78
2021/07/27 01:47:01;;;;;;;6.80;6.00;;;17.50;99.90;;;;;;5048918;28;20460;-76
2021/07/27 01:49:28;;;;;;;7.27;6.30;;;17.40;99.90;;;;;;5065429;28;20428;-77
2021/07/27 01:51:55;;;;;;;9.23;6.03;;;17.40;99.90;;;;;;5064429;28;20471;-79
2021/07/27 01:54:30;;;;;;;6.53;5.53;;;17.40;99.90;;;;;;5068478;28;20464;-78
2021/07/27 01:56:57;;;;;;;7.70;6.90;;;17.40;99.90;;;;;;5066982;28;20431;-77
2021/07/27 01:59:24;;;;;;;7.80;6.73;;;17.40;99.90;;;;;;5061958;28;20759;-76
2021/07/27 02:01:51;;;;;;;8.40;7.60;;;17.40;99.90;;;;;;5064087;28;20456;-77
2021/07/27 02:04:18;;;;;;;7.30;6.60;;;17.40;99.90;;;;;;5063962;28;20539;-78
2021/07/27 02:06:45;;;;;;;7.60;6.80;;;17.30;99.90;;;;;;5064197;28;20448;-77
2021/07/27 02:09:14;;;;;;;8.63;7.03;;;17.30;99.90;;;;;;5061907;28;20473;-78
2021/07/27 02:11:45;;;;;;;10.20;9.20;;;17.30;99.90;;;;;;5066193;28;20478;-77
2021/07/27 02:14:14;;;;;;;10.13;8.70;;;17.30;99.90;;;;;;5069529;28;20448;-76
2021/07/27 02:16:41;;;;;;;8.73;7.80;;;17.20;99.90;;;;;;5063546;28;20524;-77
2021/07/27 02:19:08;;;;;;;9.07;7.80;;;17.30;99.90;;;;;;5066263;28;20488;-76
2021/07/27 02:21:35;;;;;;;10.17;7.77;;;17.20;99.90;;;;;;5065299;28;20461;-77
2021/07/27 02:24:03;;;;;;;7.97;6.87;;;17.20;99.90;;;;;;5067122;28;20527;-77
2021/07/27 02:26:30;;;;;;;9.23;6.97;;;17.20;99.90;;;;;;5065567;28;20431;-76
2021/07/27 02:28:59;;;;;;;8.50;7.00;;;17.20;99.90;;;;;;5069242;28;20450;-78
2021/07/27 02:31:31;;;;;;;8.73;6.90;;;17.20;99.90;;;;;;5064819;28;20440;-76
2021/07/27 02:33:59;;;;;;;6.63;6.03;;;17.20;99.90;;;;;;5062748;28;20517;-76
2021/07/27 02:36:26;;;;;;;9.23;6.33;;;17.20;99.90;;;;;;5070475;28;20440;-76
2021/07/27 02:38:53;;;;;;;7.47;6.53;;;17.20;99.90;;;;;;5069538;28;20545;-76
2021/07/27 02:41:31;;;;;;;7.70;6.60;;;17.10;99.90;;;;;;5070643;28;20436;-76
2021/07/27 02:44:00;;;;;;;7.97;7.03;;;17.20;99.90;;;;;;5067372;28;20513;-75
2021/07/27 02:46:27;;;;;;;7.10;6.10;;;17.10;99.90;;;;;;5068097;28;20407;-77
2021/07/27 02:49:02;;;;;;;7.47;6.33;;;17.10;99.90;;;;;;5059771;28;21519;-76
2021/07/27 02:51:29;;;;;;;8.33;7.13;;;17.10;99.90;;;;;;5052124;28;20445;-76
2021/07/27 02:53:56;;;;;;;11.20;7.20;;;17.10;99.90;;;;;;5051291;28;20498;-76
2021/07/27 02:56:23;;;;;;;6.90;6.20;;;17.10;99.90;;;;;;5063738;28;20912;-76
2021/07/27 02:58:49;;;;;;;8.40;6.80;;;17.20;99.90;;;;;;5072426;28;20817;-76
2021/07/27 03:01:18;;;;;;;8.70;7.23;;;17.10;99.90;;;;;;5066145;28;20775;-77
2021/07/27 03:03:46;;;;;;;7.53;6.77;;;17.10;99.90;;;;;;5067782;28;20444;-77
2021/07/27 03:06:16;;;;;;;8.03;7.20;;;17.10;99.90;;;;;;5070182;28;20431;-75
2021/07/27 03:09:02;;;;;;;8.10;6.40;;;17.10;99.90;;;;;;5071386;28;20456;-79
2021/07/27 03:11:30;;;;;;;9.40;7.03;;;17.10;99.90;;;;;;5066308;28;20439;-77
2021/07/27 03:13:57;;;;;;;7.60;6.30;;;17.00;99.90;;;;;;5068645;28;20466;-76
2021/07/27 03:16:26;;;;;;;8.50;6.67;;;17.00;99.90;;;;;;5066796;28;20455;-77
2021/07/27 03:18:56;;;;;;;9.33;7.80;;;17.00;99.90;;;;;;5073719;28;20469;-77
2021/07/27 03:21:24;;;;;;;6.30;5.63;;;17.10;99.90;;;;;;5068337;28;20427;-76
2021/07/27 03:23:51;;;;;;;6.90;5.83;;;17.00;99.90;;;;;;5067063;28;20441;-78
2021/07/27 03:26:19;;;;;;;6.83;6.17;;;17.00;99.90;;;;;;5049647;28;20774;-76
2021/07/27 03:28:46;;;;;;;7.57;6.13;;;17.00;99.90;;;;;;5068792;28;20542;-76
2021/07/27 03:31:14;;;;;;;7.20;6.20;;;17.00;99.90;;;;;;5071549;28;20436;-76
2021/07/27 03:33:42;;;;;;;6.90;6.20;;;17.00;99.90;;;;;;5068392;28;20453;-76
2021/07/27 03:36:09;;;;;;;7.57;6.80;;;17.00;99.90;;;;;;5072579;28;20452;-77
2021/07/27 03:38:37;;;;;;;7.40;6.50;;;16.90;99.90;;;;;;5069799;28;20492;-76
2021/07/27 03:41:05;;;;;;;6.57;5.60;;;16.90;99.90;;;;;;5073463;28;20458;-77
2021/07/27 03:43:32;;;;;;;8.83;6.47;;;16.90;99.90;;;;;;5069456;28;20821;-76
2021/07/27 03:45:59;;;;;;;7.60;6.40;;;16.80;99.90;;;;;;5066223;28;20436;-77
2021/07/27 03:48:26;;;;;;;7.97;6.90;;;16.80;99.90;;;;;;5068170;28;20452;-79
2021/07/27 03:50:54;;;;;;;8.37;7.10;;;16.80;99.90;;;;;;5068213;28;20461;-75
2021/07/27 03:53:22;;;;;;;7.23;6.50;;;16.80;99.90;;;;;;5070852;28;20435;-78
2021/07/27 03:55:49;;;;;;;8.47;7.20;;;16.70;99.90;;;;;;5068708;28;20461;-76
2021/07/27 03:58:16;;;;;;;11.10;7.30;;;16.80;99.90;;;;;;5071260;28;20466;-78
2021/07/27 04:00:43;;;;;;;8.00;7.20;;;16.60;99.90;;;;;;5065399;28;20448;-76
2021/07/27 04:03:10;;;;;;;9.67;7.07;;;16.70;99.90;;;;;;5068153;28;20427;-76
2021/07/27 04:05:37;;;;;;;8.93;7.90;;;16.70;99.90;;;;;;5070617;28;20433;-78
2021/07/27 04:08:05;;;;;;;11.10;7.87;;;16.70;99.90;;;;;;5066228;28;20488;-75
2021/07/27 04:10:33;;;;;;;8.67;7.20;;;16.70;99.90;;;;;;5070537;28;20795;-77
2021/07/27 04:13:00;;;;;;;10.43;8.27;;;16.70;99.90;;;;;;5069649;28;20457;-77
2021/07/27 04:15:43;;;;;;;9.90;8.40;;;16.70;99.90;;;;;;5063108;28;20452;-77
2021/07/27 04:18:10;;;;;;;9.10;8.00;;;16.70;99.90;;;;;;5066000;28;20475;-77
2021/07/27 04:20:37;;;;;;;10.43;8.00;;;16.60;99.90;;;;;;5069680;28;20440;-76
2021/07/27 04:23:06;;;;;;;8.20;7.10;;;16.70;99.90;;;;;;5070331;28;20448;-76
2021/07/27 04:25:34;;;;;;;9.20;8.13;;;16.70;99.90;;;;;;5061500;28;20442;-77
2021/07/27 04:28:01;;;;;;;8.53;7.10;;;16.70;99.90;;;;;;5065615;28;20774;-77
2021/07/27 04:30:28;;;;;;;8.80;7.40;;;16.70;99.90;;;;;;5068372;28;20481;-77
2021/07/27 04:32:55;;;;;;;10.00;8.90;;;16.70;99.90;;;;;;5066418;28;20513;-76
2021/07/27 04:35:22;;;;;;;10.43;8.77;;;16.70;99.90;;;;;;5069142;28;20411;-77
2021/07/27 04:37:51;;;;;;;9.00;7.03;;;16.70;99.90;;;;;;5065791;28;20488;-76
2021/07/27 04:40:21;;;;;;;8.77;7.30;;;16.70;99.90;;;;;;5069876;28;20488;-77
2021/07/27 04:42:47;;;;;;;11.43;8.00;;;16.80;99.90;;;;;;5060306;28;21145;-77
2021/07/27 04:45:14;;;;;;;9.27;8.17;;;16.80;99.90;;;;;;5067972;28;20430;-78
2021/07/27 04:47:41;;;;;;;13.50;8.10;;;16.90;99.90;;;;;;5069370;28;20487;-77
2021/07/27 04:50:09;;;;;;;9.83;7.70;;;16.90;99.90;;;;;;5063054;28;20519;-76
2021/07/27 04:52:37;;;;;;;10.67;7.80;;;17.00;99.90;;;;;;5069395;28;20771;-77
2021/07/27 04:55:05;;;;;;;8.70;7.80;;;17.00;99.90;;;;;;5065871;28;20532;-75
2021/07/27 04:57:34;;;;;;;10.50;8.60;;;17.00;99.90;;;;;;5059590;28;20797;-76
2021/07/27 05:00:01;;;;;;;10.33;8.03;;;17.10;99.90;;;;;;5068775;28;20974;-77
2021/07/27 05:02:28;;;;;;;8.93;8.03;;;17.10;99.90;;;;;;5067593;28;20923;-77
2021/07/27 05:04:55;;;;;;;7.60;6.63;;;17.20;99.90;;;;;;5069795;28;20417;-77
2021/07/27 05:07:22;;;;;;;10.10;7.63;;;17.20;99.90;;;;;;5068297;28;23393;-77
2021/07/27 05:09:48;;;;;;;8.03;6.90;;;17.20;99.90;;;;;;5071455;28;20448;-77
2021/07/27 05:12:16;;;;;;;7.80;6.77;;;17.20;99.90;;;;;;5071762;28;20407;-76
2021/07/27 05:14:45;;;;;;;8.87;7.83;;;17.20;99.90;;;;;;5067972;28;20446;-77
2021/07/27 05:17:12;;;;;;;10.00;7.70;;;17.30;99.90;;;;;;5067763;28;20431;-76
2021/07/27 05:19:51;;;;;;;8.83;7.07;;;17.20;99.90;;;;;;5064983;28;20476;-77
2021/07/27 05:22:17;;;;;;;8.83;7.67;;;17.20;99.90;;;;;;5068457;28;20436;-77
2021/07/27 05:24:44;;;;;;;12.93;8.13;;;17.30;99.90;;;;;;5062372;28;21836;-78
2021/07/27 05:27:11;;;;;;;8.50;7.20;;;17.30;99.90;;;;;;5069593;28;20559;-76
2021/07/27 05:29:38;;;;;;;9.80;8.30;;;17.30;99.90;;;;;;5067371;28;20482;-77
2021/07/27 05:32:07;;;;;;;11.40;8.90;;;17.30;99.90;;;;;;5062050;28;20460;-77
2021/07/27 05:34:34;;;;;;;8.93;7.97;;;17.30;99.90;;;;;;5066635;28;20529;-77
2021/07/27 05:37:01;;;;;;;10.87;8.03;;;17.30;99.90;;;;;;5070261;28;20443;-76
2021/07/27 05:39:27;;;;;;;11.23;8.80;;;17.40;99.90;;;;;;5065748;28;20473;-81
2021/07/27 05:41:54;;;;;;;10.10;8.83;;;17.30;99.90;;;;;;5066367;28;20429;-77
2021/07/27 05:44:25;;;;;;;11.80;9.00;;;17.40;99.90;;;;;;5062214;28;20437;-77
2021/07/27 05:46:52;;;;;;;13.73;10.17;;;17.40;99.90;;;;;;5065754;28;20445;-77
2021/07/27 05:49:21;;;;;;;11.77;10.00;;;17.40;99.90;;;;;;5068127;28;20468;-77
2021/07/27 05:51:48;;;;;;;10.73;9.37;;;17.50;99.90;;;;;;5060443;28;20485;-77
2021/07/27 05:54:15;;;;;;;11.93;9.30;;;17.50;99.90;;;;;;5065180;28;20805;-76
2021/07/27 05:56:42;;;;;;;11.60;9.93;;;17.60;99.90;;;;;;5066103;28;20450;-75
2021/07/27 05:59:09;;;;;;;10.97;9.87;;;17.60;99.90;;;;;;5066131;28;20488;-75
2021/07/27 06:01:35;;;;;;;12.07;9.70;;;17.60;99.90;;;;;;5068241;28;20421;-76
2021/07/27 06:04:02;;;;;;;12.10;9.63;;;17.60;99.90;;;;;;5064142;28;20427;-76
2021/07/27 06:06:32;;;;;;;11.23;9.80;;;17.60;99.90;;;;;;5069498;28;20441;-76
2021/07/27 06:09:01;;;;;;;12.47;9.80;;;17.60;99.90;;;;;;5062952;28;20442;-76
2021/07/27 06:11:28;;;;;;;14.80;11.30;;;17.60;99.90;;;;;;5057461;28;20456;-76
2021/07/27 06:13:55;;;;;;;15.90;11.17;;;17.70;99.90;;;;;;5062841;28;20489;-77
2021/07/27 06:16:21;;;;;;;18.63;13.67;;;17.70;99.90;;;;;;5066505;28;20458;-77
2021/07/27 06:18:48;;;;;;;20.40;15.07;;;17.80;99.90;;;;;;5072691;28;20443;-77
2021/07/27 06:21:15;;;;;;;20.97;13.53;;;17.90;99.90;;;;;;5069838;28;20463;-77
2021/07/27 06:23:44;;;;;;;19.30;12.73;;;18.10;99.90;;;;;;5064797;28;20842;-76
2021/07/27 06:26:10;;;;;;;18.03;12.27;;;18.20;99.90;;;;;;5067082;28;20916;-77
2021/07/27 06:28:38;;;;;;;15.03;10.63;;;18.30;99.90;;;;;;5072421;28;20961;-76
2021/07/27 06:31:10;;;;;;;14.10;11.13;;;18.30;99.90;;;;;;5068679;28;20444;-76
2021/07/27 06:33:38;;;;;;;11.47;9.87;;;18.30;99.90;;;;;;5068260;28;20808;-78
2021/07/27 06:36:05;;;;;;;12.47;11.17;;;18.30;99.90;;;;;;5071993;28;20454;-77
2021/07/27 06:38:32;;;;;;;12.50;11.17;;;18.30;99.90;;;;;;5067657;28;20488;-76
2021/07/27 06:41:00;;;;;;;12.93;11.10;;;18.40;99.90;;;;;;5069946;28;21052;-76
2021/07/27 06:43:27;;;;;;;11.87;10.33;;;18.40;99.90;;;;;;5069451;28;20928;-79
2021/07/27 06:45:55;;;;;;;13.97;11.10;;;18.40;99.90;;;;;;5087342;28;20443;-78
2021/07/27 06:48:22;;;;;;;12.80;10.60;;;18.40;99.90;;;;;;5064219;28;20464;-77
2021/07/27 06:50:49;;;;;;;11.17;9.90;;;18.40;99.90;;;;;;5066714;28;20541;-79
2021/07/27 06:53:16;;;;;;;13.13;10.03;;;18.40;99.90;;;;;;5067674;28;20467;-80
2021/07/27 06:55:43;;;;;;;12.60;10.47;;;18.40;99.90;;;;;;5071920;28;20434;-78
2021/07/27 06:58:11;;;;;;;13.20;10.67;;;18.30;99.90;;;;;;5067162;28;20483;-78
2021/07/27 07:00:39;;;;;;;12.03;10.23;;;18.30;99.90;;;;;;5066545;28;20516;-77
2021/07/27 07:03:06;;;;;;;11.23;9.87;;;18.30;99.90;;;;;;5067865;28;20505;-78
2021/07/27 07:05:33;;;;;;;14.73;11.00;;;18.30;99.90;;;;;;5067241;28;20438;-77
2021/07/27 07:08:00;;;;;;;13.67;11.20;;;18.30;99.90;;;;;;5068955;28;20447;-77
2021/07/27 07:10:27;;;;;;;14.33;11.43;;;18.30;99.90;;;;;;5069967;28;20445;-77
2021/07/27 07:12:54;;;;;;;13.30;11.03;;;18.30;99.90;;;;;;5070550;28;20548;-78
2021/07/27 07:15:22;;;;;;;14.90;11.60;;;18.30;99.90;;;;;;5069663;28;20460;-77
2021/07/27 07:17:49;;;;;;;12.70;10.53;;;18.30;99.90;;;;;;5071090;28;20556;-78
2021/07/27 07:20:17;;;;;;;12.40;11.10;;;18.30;99.90;;;;;;5064041;28;20487;-78
2021/07/27 07:22:44;;;;;;;15.60;12.30;;;18.30;99.90;;;;;;5067658;28;20444;-77
2021/07/27 07:25:11;;;;;;;14.23;12.23;;;18.30;99.90;;;;;;5068648;28;20776;-77
2021/07/27 07:27:38;;;;;;;16.23;12.30;;;18.30;99.90;;;;;;5067022;28;21239;-78
2021/07/27 07:30:06;;;;;;;21.40;15.40;;;18.30;99.90;;;;;;5064939;28;20796;-78
2021/07/27 07:32:34;;;;;;;23.50;18.70;;;18.40;99.90;;;;;;5063976;28;20459;-78
2021/07/27 07:35:03;;;;;;;34.03;21.03;;;18.50;99.90;;;;;;5068126;28;20447;-77
2021/07/27 07:37:30;;;;;;;20.43;16.83;;;18.70;99.90;;;;;;5063146;28;20479;-78
2021/07/27 07:39:57;;;;;;;16.97;13.50;;;18.90;99.90;;;;;;5068290;28;20492;-77
2021/07/27 07:42:23;;;;;;;18.40;13.80;;;19.10;99.90;;;;;;5067025;28;20961;-77
2021/07/27 07:44:50;;;;;;;15.13;13.43;;;19.20;99.90;;;;;;5068897;28;20440;-76
2021/07/27 07:47:17;;;;;;;15.23;13.03;;;19.30;99.90;;;;;;5069361;28;20457;-76
2021/07/27 07:49:45;;;;;;;16.53;13.57;;;19.50;99.90;;;;;;5062154;28;20469;-78
2021/07/27 07:52:12;;;;;;;13.03;11.73;;;19.50;99.90;;;;;;5065613;28;20626;-78
2021/07/27 07:54:39;;;;;;;11.90;10.70;;;19.70;99.90;;;;;;5028810;28;20501;-78
2021/07/27 07:57:06;;;;;;;12.00;10.73;;;19.70;99.90;;;;;;5032279;28;20440;-77
2021/07/27 07:59:33;;;;;;;11.23;10.03;;;19.90;99.90;;;;;;5031300;28;20831;-76
2021/07/27 08:02:00;;;;;;;10.93;9.93;;;20.00;99.90;;;;;;5027713;28;20461;-78
2021/07/27 08:04:27;;;;;;;10.10;9.10;;;20.20;99.90;;;;;;5023840;28;20442;-78
2021/07/27 08:06:55;;;;;;;9.30;8.40;;;20.30;99.90;;;;;;5021196;28;20450;-78
2021/07/27 08:09:22;;;;;;;10.73;9.50;;;20.50;99.90;;;;;;5030836;28;20458;-79
2021/07/27 08:11:49;;;;;;;8.10;7.23;;;20.60;99.90;;;;;;5030707;28;20444;-80
2021/07/27 08:14:16;;;;;;;8.90;8.10;;;20.60;99.90;;;;;;5026172;28;20464;-79
2021/07/27 08:16:43;;;;;;;8.23;7.53;;;20.70;99.90;;;;;;5028950;28;20500;-78
2021/07/27 08:19:09;;;;;;;8.37;7.63;;;20.80;99.90;;;;;;5020538;28;20979;-80
2021/07/27 08:21:36;;;;;;;8.17;7.47;;;20.80;99.90;;;;;;5029073;28;20468;-79
2021/07/27 08:24:05;;;;;;;9.00;8.00;;;20.80;99.90;;;;;;5030161;28;21006;-78
2021/07/27 08:26:32;;;;;;;8.73;7.83;;;20.80;99.90;;;;;;5028765;28;20553;-78
2021/07/27 08:28:59;;;;;;;8.30;7.57;;;20.80;99.90;;;;;;5030825;28;20460;-78
2021/07/27 08:31:26;;;;;;;8.03;7.33;;;20.80;99.90;;;;;;5027705;28;20458;-77
2021/07/27 08:33:53;;;;;;;8.60;7.80;;;20.80;99.90;;;;;;5025648;28;20442;-77
2021/07/27 08:36:20;;;;;;;8.87;7.80;;;20.80;99.90;;;;;;5026934;28;20481;-78
2021/07/27 08:38:47;;;;;;;7.50;6.63;;;20.90;99.90;;;;;;5029964;28;20461;-78
2021/07/27 08:41:17;;;;;;;8.47;7.33;;;21.00;99.90;;;;;;5027943;28;20486;-77
2021/07/27 08:43:44;;;;;;;8.43;7.20;;;20.90;99.90;;;;;;5025586;28;20460;-80
2021/07/27 08:46:16;;;;;;;7.57;6.77;;;20.90;99.90;;;;;;5030639;28;20466;-81
2021/07/27 08:48:43;;;;;;;8.30;7.40;;;21.10;99.90;;;;;;5024130;28;20963;-77
2021/07/27 08:51:11;;;;;;;7.80;7.10;;;21.20;99.90;;;;;;5027044;28;20430;-78
2021/07/27 08:53:38;;;;;;;8.40;7.30;;;21.10;99.90;;;;;;5049197;28;20483;-79
2021/07/27 08:56:05;;;;;;;8.77;7.97;;;21.20;99.90;;;;;;5069085;28;20432;-76
2021/07/27 08:58:33;;;;;;;9.80;7.67;;;21.20;99.90;;;;;;5067581;28;20476;-79
2021/07/27 09:01:00;;;;;;;8.97;8.07;;;21.20;99.90;;;;;;5062951;28;20480;-77
2021/07/27 09:03:28;;;;;;;8.50;7.70;;;21.30;99.90;;;;;;5062383;28;20542;-78
2021/07/27 09:06:04;;;;;;;8.37;7.60;;;21.30;99.90;;;;;;5068413;28;20448;-77
2021/07/27 09:08:32;;;;;;;8.63;7.83;;;21.40;99.90;;;;;;5066131;28;20476;-78
2021/07/27 09:11:01;;;;;;;8.53;7.73;;;21.20;99.90;;;;;;5069546;28;20440;-77
2021/07/27 09:13:34;;;;;;;8.87;8.07;;;21.20;99.90;;;;;;5085212;28;20433;-77
2021/07/27 09:16:01;;;;;;;10.57;9.50;;;21.20;99.90;;;;;;5069428;28;20539;-78
2021/07/27 09:18:30;;;;;;;9.03;8.23;;;21.20;99.90;;;;;;5064497;28;20464;-77
2021/07/27 09:20:58;;;;;;;10.03;9.03;;;21.20;99.90;;;;;;5065594;28;20877;-79
2021/07/27 09:23:27;;;;;;;9.30;8.40;;;21.10;99.90;;;;;;5070721;28;20451;-77
2021/07/27 09:25:55;;;;;;;9.70;8.80;;;21.10;99.90;;;;;;5061263;28;20858;-78
2021/07/27 09:28:24;;;;;;;10.33;9.33;;;21.10;99.90;;;;;;5065878;28;20459;-78
2021/07/27 09:30:58;;;;;;;9.17;8.37;;;21.00;99.90;;;;;;5065936;28;20463;-77
2021/07/27 09:33:30;;;;;;;10.17;9.17;;;21.00;99.90;;;;;;5060371;28;20530;-76
2021/07/27 09:35:57;;;;;;;10.97;8.80;;;20.90;99.90;;;;;;5079309;28;20441;-79
2021/07/27 09:38:26;;;;;;;9.70;8.80;;;20.90;99.90;;;;;;5064033;28;20830;-77
2021/07/27 09:40:54;;;;;;;10.00;9.13;;;20.90;99.90;;;;;;5071032;28;20498;-76
2021/07/27 09:43:24;;;;;;;9.40;8.57;;;20.80;99.90;;;;;;5056941;28;20459;-77
2021/07/27 09:45:55;;;;;;;9.77;8.80;;;20.70;99.90;;;;;;5070218;28;20436;-78
2021/07/27 09:48:23;;;;;;;10.07;9.10;;;20.70;99.90;;;;;;5059418;28;20969;-78
2021/07/27 09:50:51;;;;;;;9.47;8.47;;;20.70;99.90;;;;;;5064656;28;20448;-76
2021/07/27 09:53:19;;;;;;;10.57;9.50;;;20.70;99.90;;;;;;5067867;28;20479;-80
2021/07/27 09:55:47;;;;;;;8.40;7.60;;;20.70;99.90;;;;;;5061298;28;20464;-81
2021/07/27 09:58:15;;;;;;;9.53;8.67;;;20.70;99.90;;;;;;5064368;28;20479;-76
2021/07/27 10:00:51;;;;;;;10.10;8.13;;;20.70;99.90;;;;;;5094026;28;20478;-77
2021/07/27 10:03:24;;;;;;;8.07;7.27;;;20.60;99.90;;;;;;5088961;28;20543;-77
2021/07/27 10:05:55;;;;;;;9.70;8.33;;;20.70;99.90;;;;;;5064047;28;20532;-77
2021/07/27 10:08:31;;;;;;;8.10;7.30;;;20.70;99.90;;;;;;5062129;28;20825;-79
2021/07/27 10:11:07;;;;;;;8.43;7.63;;;20.70;99.90;;;;;;5067601;28;20520;-79
2021/07/27 10:13:35;;;;;;;8.93;7.97;;;20.80;99.90;;;;;;5064145;28;20459;-79
2021/07/27 10:16:03;;;;;;;8.50;7.70;;;20.80;99.90;;;;;;5064162;28;20461;-78
2021/07/27 10:18:35;;;;;;;8.47;7.67;;;20.80;99.90;;;;;;5058307;28;20830;-79
2021/07/27 10:21:23;;;;;;;8.97;8.17;;;20.80;99.90;;;;;;5063689;28;20480;-77
2021/07/27 10:23:50;;;;;;;7.40;6.80;;;20.80;99.90;;;;;;5065866;28;21006;-80
2021/07/27 10:26:27;;;;;;;7.50;6.70;;;20.80;99.90;;;;;;5065308;28;20462;-78
2021/07/27 10:28:54;;;;;;;7.87;7.17;;;20.80;99.90;;;;;;5087434;28;20455;-78
2021/07/27 10:31:32;;;;;;;7.57;6.87;;;20.80;99.90;;;;;;5095920;28;20452;-77
2021/07/27 10:34:02;;;;;;;8.80;8.00;;;20.80;99.90;;;;;;5063225;28;20451;-81
2021/07/27 10:36:32;;;;;;;8.20;7.50;;;20.70;99.90;;;;;;5064278;28;20452;-78
2021/07/27 10:39:12;;;;;;;7.67;6.97;;;20.70;99.90;;;;;;5081143;28;20468;-76
2021/07/27 10:41:41;;;;;;;8.87;8.10;;;20.60;99.90;;;;;;5059100;28;20493;-77
2021/07/27 10:44:10;;;;;;;8.77;8.07;;;20.50;99.90;;;;;;5061639;28;20475;-78
2021/07/27 10:46:39;;;;;;;7.97;7.17;;;20.50;99.90;;;;;;5062066;28;20447;-78
2021/07/27 10:49:15;;;;;;;8.30;6.33;;;20.60;99.90;;;;;;5057995;28;20467;-78
2021/07/27 10:51:45;;;;;;;7.57;6.90;;;20.70;99.90;;;;;;5042603;28;20440;-80
2021/07/27 10:54:14;;;;;;;6.73;6.13;;;20.70;99.90;;;;;;5055395;28;20541;-78
2021/07/27 10:56:48;;;;;;;7.87;7.07;;;20.70;99.90;;;;;;5064978;28;20433;-77
2021/07/27 10:59:20;;;;;;;6.80;6.20;;;20.70;99.90;;;;;;5066726;28;20501;-78
2021/07/27 11:01:47;;;;;;;6.53;6.03;;;20.80;99.90;;;;;;5061169;28;20585;-78
2021/07/27 11:04:17;;;;;;;7.33;5.90;;;20.80;99.90;;;;;;5061032;28;20460;-77
2021/07/27 11:06:44;;;;;;;8.17;6.10;;;20.90;99.90;;;;;;5066380;28;20542;-78
2021/07/27 11:09:12;;;;;;;5.90;5.40;;;20.90;99.90;;;;;;5064954;28;20475;-77
2021/07/27 11:11:48;;;;;;;6.63;6.03;;;20.90;99.90;;;;;;5062464;28;20810;-79
2021/07/27 11:14:23;;;;;;;7.00;6.30;;;20.90;99.90;;;;;;5067769;28;20456;-79
2021/07/27 11:16:50;;;;;;;7.27;6.63;;;20.90;99.90;;;;;;5063313;28;20451;-77
2021/07/27 11:19:27;;;;;;;6.70;6.10;;;20.90;99.90;;;;;;5066559;28;20555;-78
2021/07/27 11:21:56;;;;;;;6.40;5.80;;;21.00;99.90;;;;;;5064923;28;20483;-77
2021/07/27 11:24:24;;;;;;;6.30;5.70;;;20.90;99.90;;;;;;5056258;28;20459;-79
2021/07/27 11:26:52;;;;;;;6.80;6.20;;;20.90;99.90;;;;;;5067807;28;20436;-78
2021/07/27 11:29:19;;;;;;;8.43;6.53;;;20.80;99.90;;;;;;5068681;28;20499;-78
2021/07/27 11:31:47;;;;;;;10.63;6.33;;;20.80;99.90;;;;;;5066553;28;20546;-81
2021/07/27 11:34:14;;;;;;;7.43;6.70;;;20.80;99.90;;;;;;5070353;28;21012;-78
2021/07/27 11:36:53;;;;;;;7.43;6.83;;;20.80;99.90;;;;;;5066668;28;20463;-78
2021/07/27 11:39:20;;;;;;;7.20;6.50;;;20.80;99.90;;;;;;5063445;28;20464;-79
2021/07/27 11:41:59;;;;;;;7.10;6.40;;;20.80;99.90;;;;;;5062969;28;20484;-78
2021/07/27 11:44:26;;;;;;;7.00;6.40;;;20.70;99.90;;;;;;5067959;28;20440;-82
2021/07/27 11:46:53;;;;;;;7.53;6.53;;;20.80;99.90;;;;;;5066292;28;21151;-77
2021/07/27 11:49:20;;;;;;;7.77;5.90;;;20.80;99.90;;;;;;5068241;28;20487;-77
2021/07/27 11:51:48;;;;;;;7.40;6.67;;;20.80;99.90;;;;;;5067989;28;20818;-78
2021/07/27 11:54:25;;;;;;;7.70;6.90;;;20.80;99.90;;;;;;5062894;28;20506;-79
2021/07/27 11:56:52;;;;;;;8.13;7.43;;;20.80;99.90;;;;;;5070802;28;20786;-80
2021/07/27 11:59:25;;;;;;;6.80;6.20;;;20.90;99.90;;;;;;5068137;28;20479;-81
2021/07/27 12:01:53;;;;;;;6.90;6.27;;;20.80;99.90;;;;;;5067023;28;20481;-80
2021/07/27 12:04:20;;;;;;;6.60;6.00;;;20.60;99.90;;;;;;5061104;28;20677;-77
2021/07/27 12:06:49;;;;;;;7.03;6.20;;;20.80;99.90;;;;;;5069816;28;20510;-79
2021/07/27 12:09:17;;;;;;;6.73;6.13;;;20.80;99.90;;;;;;5065738;28;20966;-81
2021/07/27 12:11:44;;;;;;;6.80;5.90;;;20.80;99.90;;;;;;5069232;28;20453;-81
2021/07/27 12:14:11;;;;;;;6.97;6.37;;;20.80;99.90;;;;;;5068174;28;20463;-78
2021/07/27 12:16:38;;;;;;;7.13;6.43;;;20.80;99.90;;;;;;5061044;28;20449;-79
2021/07/27 12:19:05;;;;;;;6.63;5.90;;;20.90;99.90;;;;;;5068093;28;20906;-79
2021/07/27 12:21:32;;;;;;;7.47;6.77;;;20.90;99.90;;;;;;5070348;28;20476;-83
2021/07/27 12:24:00;;;;;;;7.50;6.00;;;20.90;99.90;;;;;;5055457;28;20864;-78
2021/07/27 12:26:27;;;;;;;7.17;6.47;;;21.00;99.90;;;;;;5069866;28;20613;-83
2021/07/27 12:28:54;;;;;;;6.63;6.03;;;21.00;99.90;;;;;;5068724;28;20455;-80
2021/07/27 12:31:21;;;;;;;6.30;5.80;;;21.10;99.90;;;;;;5064985;28;20444;-82
2021/07/27 12:33:48;;;;;;;8.03;6.50;;;21.10;99.90;;;;;;5062019;28;20460;-77
2021/07/27 12:36:15;;;;;;;7.00;6.37;;;21.10;99.90;;;;;;5070745;28;20451;-81
2021/07/27 12:38:42;;;;;;;7.70;7.00;;;21.10;99.90;;;;;;5070254;28;20460;-79
2021/07/27 12:41:10;;;;;;;6.27;5.77;;;21.10;99.90;;;;;;5059540;28;20503;-79
2021/07/27 12:43:37;;;;;;;6.20;5.70;;;21.20;99.90;;;;;;5062754;28;20782;-79
2021/07/27 12:46:04;;;;;;;5.97;5.47;;;21.20;99.90;;;;;;5063543;28;20444;-80
2021/07/27 12:48:32;;;;;;;7.37;6.17;;;21.30;99.90;;;;;;5062668;28;20559;-79
2021/07/27 12:50:59;;;;;;;6.50;5.90;;;21.20;99.90;;;;;;5065366;28;20517;-83
2021/07/27 12:53:26;;;;;;;6.40;5.80;;;21.20;99.90;;;;;;5063510;28;20480;-82
2021/07/27 12:55:55;;;;;;;6.40;5.90;;;21.20;99.90;;;;;;5066472;28;20459;-80
2021/07/27 12:58:24;;;;;;;8.23;7.47;;;21.20;99.90;;;;;;5063274;28;20459;-81
2021/07/27 13:00:51;;;;;;;7.03;6.43;;;21.30;99.90;;;;;;5056864;28;20459;-79
2021/07/27 13:03:18;;;;;;;7.00;6.40;;;21.30;99.90;;;;;;5063901;28;20456;-81
2021/07/27 13:05:46;;;;;;;6.43;5.83;;;21.30;99.90;;;;;;5068945;28;20525;-80
2021/07/27 13:08:13;;;;;;;6.93;6.30;;;21.30;99.90;;;;;;5063297;28;20550;-79